createdAt,value
2018-10-07T00:00:48.624Z,99.99
2018-10-07T00:01:57.527Z,99.99
2018-10-07T00:03:06.440Z,99.99
2018-10-07T00:04:15.346Z,99.99
2018-10-07T00:05:24.264Z,99.99
2018-10-07T00:06:32.902Z,99.99
2018-10-07T00:07:41.551Z,99.99
2018-10-07T00:08:50.461Z,99.99
2018-10-07T00:09:59.109Z,99.99
2018-10-07T00:11:07.753Z,99.99
2018-10-07T00:12:16.396Z,99.99
2018-10-07T00:13:25.304Z,99.99
2018-10-07T00:14:33.943Z,99.99
2018-10-07T00:15:42.592Z,99.99
2018-10-07T00:16:51.234Z,99.99
2018-10-07T00:17:59.874Z,99.99
2018-10-07T00:19:08.514Z,99.99
2018-10-07T00:20:17.162Z,99.99
2018-10-07T00:21:25.806Z,99.99
2018-10-07T00:22:34.456Z,99.99
2018-10-07T00:23:43.358Z,99.99
2018-10-07T00:24:52.011Z,99.99
2018-10-07T00:26:00.656Z,99.99
2018-10-07T00:27:09.318Z,99.99
2018-10-07T00:28:18.220Z,99.99
2018-10-07T00:29:26.866Z,99.99
2018-10-07T00:30:35.519Z,99.99
2018-10-07T00:31:44.160Z,99.99
2018-10-07T00:32:53.071Z,99.99
2018-10-07T00:34:01.702Z,99.99
2018-10-07T00:35:10.352Z,99.99
2018-10-07T00:36:18.992Z,99.99
2018-10-07T00:37:27.644Z,99.99
2018-10-07T00:38:36.285Z,99.99
2018-10-07T00:39:44.921Z,99.99
2018-10-07T00:40:53.560Z,99.99
2018-10-07T00:42:02.213Z,99.99
2018-10-07T00:43:10.847Z,99.99
2018-10-07T00:44:19.502Z,99.99
2018-10-07T00:45:28.674Z,99.99
2018-10-07T00:46:37.327Z,99.99
2018-10-07T00:47:45.969Z,99.99
2018-10-07T00:48:54.606Z,99.99
2018-10-07T00:50:03.250Z,99.99
2018-10-07T00:51:11.892Z,99.99
2018-10-07T00:52:20.806Z,99.99
2018-10-07T00:53:29.707Z,99.99
2018-10-07T00:54:38.357Z,99.99
2018-10-07T00:55:46.996Z,99.99
2018-10-07T00:56:55.648Z,99.99
2018-10-07T00:58:04.288Z,99.99
2018-10-07T00:59:12.937Z,99.99
2018-10-07T01:00:21.571Z,99.99
2018-10-07T01:01:30.224Z,99.99
2018-10-07T01:02:39.124Z,99.99
2018-10-07T01:03:47.771Z,99.99
2018-10-07T01:04:56.404Z,99.99
2018-10-07T01:06:05.051Z,99.99
2018-10-07T01:07:13.697Z,99.99
2018-10-07T01:08:22.345Z,99.99
2018-10-07T01:09:30.990Z,99.99
2018-10-07T01:10:39.627Z,99.99
2018-10-07T01:11:48.281Z,99.99
2018-10-07T01:12:56.917Z,99.99
2018-10-07T01:14:05.575Z,99.99
2018-10-07T01:15:14.199Z,99.99
2018-10-07T01:16:22.848Z,99.99
2018-10-07T01:17:31.487Z,99.99
2018-10-07T01:18:40.676Z,99.99
2018-10-07T01:19:49.308Z,99.99
2018-10-07T01:20:57.956Z,99.99
2018-10-07T01:22:06.604Z,99.99
2018-10-07T01:23:15.512Z,99.99
2018-10-07T01:24:24.416Z,99.99
2018-10-07T01:25:33.063Z,99.99
2018-10-07T01:26:41.704Z,99.99
2018-10-07T01:27:50.345Z,99.99
2018-10-07T01:28:59.001Z,99.99
2018-10-07T01:30:07.646Z,99.99
2018-10-07T01:31:16.286Z,99.99
2018-10-07T01:32:24.925Z,99.99
2018-10-07T01:33:33.575Z,99.99
2018-10-07T01:34:42.478Z,99.99
2018-10-07T01:35:51.120Z,99.99
2018-10-07T01:36:59.759Z,99.99
2018-10-07T01:38:08.404Z,99.99
2018-10-07T01:39:17.321Z,99.99
2018-10-07T01:40:26.232Z,99.99
2018-10-07T01:41:34.869Z,99.99
2018-10-07T01:42:43.515Z,99.99
2018-10-07T01:43:52.158Z,99.99
2018-10-07T01:45:00.804Z,99.99
2018-10-07T01:46:09.453Z,99.99
2018-10-07T01:47:18.092Z,99.99
2018-10-07T01:48:26.735Z,99.99
2018-10-07T01:49:35.376Z,99.99
2018-10-07T01:50:44.025Z,99.99
2018-10-07T01:51:52.667Z,99.99
2018-10-07T01:53:01.316Z,99.99
2018-10-07T01:54:09.956Z,99.99
2018-10-07T01:55:18.602Z,99.99
2018-10-07T01:56:27.240Z,99.99
2018-10-07T01:57:35.886Z,99.99
2018-10-07T01:58:44.528Z,99.99
2018-10-07T01:59:53.176Z,99.99
2018-10-07T02:01:01.816Z,99.99
2018-10-07T02:02:10.457Z,99.99
2018-10-07T02:03:19.098Z,99.99
2018-10-07T02:04:28.277Z,99.99
2018-10-07T02:05:37.185Z,99.99
2018-10-07T02:06:45.830Z,99.99
2018-10-07T02:07:54.472Z,99.99
2018-10-07T02:09:03.113Z,99.99
2018-10-07T02:10:11.768Z,99.99
2018-10-07T02:11:20.930Z,99.99
2018-10-07T02:12:29.574Z,99.99
2018-10-07T02:13:38.217Z,99.99
2018-10-07T02:14:47.458Z,99.99
2018-10-07T02:15:56.093Z,99.99
2018-10-07T02:17:05.000Z,99.99
2018-10-07T02:18:14.211Z,99.99
2018-10-07T02:19:22.858Z,99.99
2018-10-07T02:20:31.500Z,99.99
2018-10-07T02:21:40.144Z,99.99
2018-10-07T02:22:48.784Z,99.99
2018-10-07T02:23:57.430Z,99.99
2018-10-07T02:25:06.075Z,99.99
2018-10-07T02:26:14.721Z,99.99
2018-10-07T02:27:23.354Z,99.99
2018-10-07T02:28:31.999Z,99.99
2018-10-07T02:29:40.646Z,99.99
2018-10-07T02:30:49.305Z,99.99
2018-10-07T02:31:57.934Z,99.99
2018-10-07T02:33:06.864Z,99.99
2018-10-07T02:34:15.776Z,99.99
2018-10-07T02:35:24.420Z,99.99
2018-10-07T02:36:33.058Z,99.99
2018-10-07T02:37:41.965Z,99.99
2018-10-07T02:38:50.609Z,99.99
2018-10-07T02:39:59.262Z,99.99
2018-10-07T02:41:07.899Z,99.99
2018-10-07T02:42:16.540Z,99.99
2018-10-07T02:43:25.182Z,99.99
2018-10-07T02:44:33.831Z,99.99
2018-10-07T02:45:42.467Z,99.99
2018-10-07T02:46:51.104Z,99.99
2018-10-07T02:47:59.751Z,99.99
2018-10-07T02:49:08.396Z,99.99
2018-10-07T02:50:17.325Z,99.99
2018-10-07T02:51:26.227Z,99.99
2018-10-07T02:52:34.877Z,99.99
2018-10-07T02:53:43.514Z,99.99
2018-10-07T02:54:52.162Z,99.99
2018-10-07T02:56:00.803Z,99.99
2018-10-07T02:57:09.446Z,99.99
2018-10-07T02:58:18.089Z,99.99
2018-10-07T02:59:26.732Z,99.99
2018-10-07T03:00:35.378Z,99.99
2018-10-07T03:01:44.020Z,99.99
2018-10-07T03:02:52.661Z,99.99
2018-10-07T03:04:01.298Z,99.99
2018-10-07T03:05:09.946Z,99.99
2018-10-07T03:06:18.588Z,99.99
2018-10-07T03:07:27.491Z,99.99
2018-10-07T03:08:36.132Z,99.99
2018-10-07T03:09:45.314Z,99.99
2018-10-07T03:10:53.959Z,99.99
2018-10-07T03:12:02.867Z,99.99
2018-10-07T03:13:11.513Z,99.99
2018-10-07T03:14:20.156Z,99.99
2018-10-07T03:15:29.067Z,99.99
2018-10-07T03:16:37.706Z,99.99
2018-10-07T03:17:46.619Z,99.99
2018-10-07T03:18:55.521Z,99.99
2018-10-07T03:20:04.171Z,99.99
2018-10-07T03:21:12.807Z,99.99
2018-10-07T03:22:21.458Z,99.99
2018-10-07T03:23:30.094Z,99.99
2018-10-07T03:24:38.742Z,99.99
2018-10-07T03:25:47.377Z,99.99
2018-10-07T03:26:56.289Z,99.99
2018-10-07T03:28:04.922Z,99.99
2018-10-07T03:29:13.581Z,99.99
2018-10-07T03:30:22.533Z,99.99
2018-10-07T03:31:31.189Z,99.99
2018-10-07T03:32:39.835Z,99.99
2018-10-07T03:33:48.474Z,99.99
2018-10-07T03:34:57.139Z,99.99
2018-10-07T03:36:05.759Z,99.99
2018-10-07T03:37:14.674Z,99.99
2018-10-07T03:38:23.314Z,99.99
2018-10-07T03:39:32.242Z,99.99
2018-10-07T03:40:40.873Z,99.99
2018-10-07T03:41:50.053Z,99.99
2018-10-07T03:42:58.691Z,99.99
2018-10-07T03:44:07.612Z,99.99
2018-10-07T03:45:16.244Z,99.99
2018-10-07T03:46:25.175Z,99.99
2018-10-07T03:47:33.816Z,99.99
2018-10-07T03:48:42.725Z,99.99
2018-10-07T03:49:51.357Z,99.99
2018-10-07T03:51:00.261Z,99.99
2018-10-07T03:52:08.914Z,99.99
2018-10-07T03:53:17.558Z,99.99
2018-10-07T03:54:26.470Z,99.99
2018-10-07T03:55:35.103Z,99.99
2018-10-07T03:56:43.747Z,99.99
2018-10-07T03:57:52.384Z,99.99
2018-10-07T03:59:01.035Z,99.99
2018-10-07T04:00:09.944Z,99.99
2018-10-07T04:01:18.590Z,99.99
2018-10-07T04:02:27.499Z,99.99
2018-10-07T04:03:36.417Z,99.99
2018-10-07T04:04:45.054Z,99.99
2018-10-07T04:05:53.700Z,99.99
2018-10-07T04:07:02.338Z,99.99
2018-10-07T04:08:10.991Z,99.99
2018-10-07T04:09:19.629Z,99.99
2018-10-07T04:10:28.531Z,99.99
2018-10-07T04:11:37.714Z,99.99
2018-10-07T04:12:46.624Z,99.99
2018-10-07T04:13:55.535Z,99.99
2018-10-07T04:15:04.700Z,99.99
2018-10-07T04:16:13.346Z,99.99
2018-10-07T04:17:22.251Z,99.99
2018-10-07T04:18:30.900Z,99.99
2018-10-07T04:19:39.839Z,99.99
2018-10-07T04:20:48.481Z,99.99
2018-10-07T04:21:57.111Z,99.99
2018-10-07T04:23:05.764Z,99.99
2018-10-07T04:24:14.930Z,99.99
2018-10-07T04:25:23.573Z,99.99
2018-10-07T04:26:32.209Z,99.99
2018-10-07T04:27:40.858Z,99.99
2018-10-07T04:28:49.495Z,99.99
2018-10-07T04:29:58.406Z,99.99
2018-10-07T04:31:07.068Z,99.99
2018-10-07T04:32:15.686Z,99.99
2018-10-07T04:33:24.329Z,99.99
2018-10-07T04:34:32.970Z,99.99
2018-10-07T04:35:41.884Z,99.99
2018-10-07T04:36:50.789Z,99.99
2018-10-07T04:37:59.699Z,99.99
2018-10-07T04:39:08.338Z,99.99
2018-10-07T04:40:17.258Z,99.99
2018-10-07T04:41:25.896Z,99.99
2018-10-07T04:42:34.536Z,99.99
2018-10-07T04:43:43.177Z,99.99
2018-10-07T04:44:52.163Z,99.99
2018-10-07T04:46:00.803Z,99.99
2018-10-07T04:47:09.445Z,99.99
2018-10-07T04:48:18.086Z,99.99
2018-10-07T04:49:26.726Z,99.99
2018-10-07T04:50:35.373Z,99.99
2018-10-07T04:51:44.014Z,99.99
2018-10-07T04:52:52.657Z,99.99
2018-10-07T04:54:01.295Z,99.99
2018-10-07T04:55:09.940Z,99.99
2018-10-07T04:56:18.582Z,99.99
2018-10-07T04:57:27.491Z,99.99
2018-10-07T04:58:36.128Z,99.99
2018-10-07T04:59:44.775Z,99.99
2018-10-07T05:00:53.423Z,99.99
2018-10-07T05:02:02.069Z,99.99
2018-10-07T05:03:10.978Z,99.99
2018-10-07T05:04:19.622Z,99.99
2018-10-07T05:05:28.265Z,99.99
2018-10-07T05:06:37.455Z,99.99
2018-10-07T05:07:46.099Z,99.99
2018-10-07T05:08:54.736Z,99.99
2018-10-07T05:10:03.652Z,99.99
2018-10-07T05:11:12.293Z,99.99
2018-10-07T05:12:21.071Z,99.99
2018-10-07T05:13:29.578Z,99.99
2018-10-07T05:14:38.219Z,99.99
2018-10-07T05:15:46.865Z,99.99
2018-10-07T05:16:55.513Z,99.99
2018-10-07T05:18:04.414Z,99.99
2018-10-07T05:19:13.061Z,99.99
2018-10-07T05:20:21.700Z,99.99
2018-10-07T05:21:30.353Z,99.99
2018-10-07T05:22:39.258Z,99.99
2018-10-07T05:23:47.907Z,99.99
2018-10-07T05:24:56.813Z,99.99
2018-10-07T05:26:05.975Z,99.99
2018-10-07T05:27:14.624Z,99.99
2018-10-07T05:28:23.536Z,99.99
2018-10-07T05:29:32.186Z,99.99
2018-10-07T05:30:40.814Z,99.99
2018-10-07T05:31:49.467Z,99.99
2018-10-07T05:32:58.365Z,99.99
2018-10-07T05:34:07.008Z,99.99
2018-10-07T05:35:15.641Z,99.99
2018-10-07T05:36:24.291Z,99.99
2018-10-07T05:37:33.192Z,99.99
2018-10-07T05:38:41.834Z,99.99
2018-10-07T05:39:50.730Z,99.99
2018-10-07T05:40:59.634Z,99.99
2018-10-07T05:42:08.540Z,99.99
2018-10-07T05:43:17.185Z,99.99
2018-10-07T05:44:25.944Z,99.99
2018-10-07T05:45:35.846Z,99.99
2018-10-07T05:46:45.023Z,99.99
2018-10-07T05:47:53.663Z,99.99
2018-10-07T05:49:02.314Z,99.99
2018-10-07T05:50:10.947Z,99.99
2018-10-07T05:51:19.593Z,99.99
2018-10-07T05:52:28.500Z,99.99
2018-10-07T05:53:37.151Z,99.99
2018-10-07T05:54:45.820Z,99.99
2018-10-07T05:55:54.427Z,99.99
2018-10-07T05:57:03.067Z,99.99
2018-10-07T05:58:11.727Z,99.99
2018-10-07T05:59:20.630Z,99.99
2018-10-07T06:00:29.267Z,99.99
2018-10-07T06:01:37.973Z,99.99
2018-10-07T06:02:46.540Z,99.99
2018-10-07T06:03:55.191Z,99.99
2018-10-07T06:05:03.828Z,99.99
2018-10-07T06:06:12.473Z,99.99
2018-10-07T06:07:21.110Z,99.99
2018-10-07T06:08:29.755Z,99.99
2018-10-07T06:09:38.396Z,99.99
2018-10-07T06:10:47.042Z,99.99
2018-10-07T06:11:55.935Z,99.99
2018-10-07T06:13:04.592Z,99.99
2018-10-07T06:14:13.228Z,99.99
2018-10-07T06:15:21.864Z,99.99
2018-10-07T06:16:30.511Z,99.99
2018-10-07T06:17:39.409Z,99.99
2018-10-07T06:18:48.046Z,99.99
2018-10-07T06:19:56.686Z,99.99
2018-10-07T06:21:05.327Z,99.99
2018-10-07T06:22:13.977Z,99.99
2018-10-07T06:23:23.145Z,99.99
2018-10-07T06:24:31.793Z,99.99
2018-10-07T06:25:40.426Z,99.99
2018-10-07T06:26:49.354Z,99.99
2018-10-07T06:27:57.993Z,99.99
2018-10-07T06:29:06.636Z,99.99
2018-10-07T06:30:15.266Z,99.99
2018-10-07T06:31:23.922Z,99.99
2018-10-07T06:32:32.588Z,99.99
2018-10-07T06:33:41.215Z,99.99
2018-10-07T06:34:49.851Z,99.99
2018-10-07T06:35:58.494Z,99.99
2018-10-07T06:37:07.138Z,99.99
2018-10-07T06:38:15.783Z,99.99
2018-10-07T06:39:24.431Z,99.99
2018-10-07T06:40:33.058Z,99.99
2018-10-07T06:41:41.703Z,99.99
2018-10-07T06:42:50.341Z,99.99
2018-10-07T06:43:58.992Z,99.99
2018-10-07T06:45:07.628Z,99.99
2018-10-07T06:46:16.272Z,99.99
2018-10-07T06:47:24.908Z,99.99
2018-10-07T06:48:33.822Z,99.99
2018-10-07T06:49:42.460Z,99.99
2018-10-07T06:50:51.102Z,99.99
2018-10-07T06:51:59.737Z,99.99
2018-10-07T06:53:08.429Z,99.99
2018-10-07T06:54:17.068Z,99.99
2018-10-07T06:55:25.705Z,99.99
2018-10-07T06:56:34.345Z,99.99
2018-10-07T06:57:42.988Z,99.99
2018-10-07T06:58:51.637Z,99.99
2018-10-07T07:00:00.276Z,99.99
2018-10-07T07:01:09.195Z,99.99
2018-10-07T07:02:17.826Z,99.99
2018-10-07T07:03:26.478Z,99.99
2018-10-07T07:04:35.117Z,99.99
2018-10-07T07:05:43.763Z,99.99
2018-10-07T07:06:52.396Z,99.99
2018-10-07T07:08:01.052Z,99.99
2018-10-07T07:09:10.228Z,99.99
2018-10-07T07:10:19.127Z,99.99
2018-10-07T07:11:27.762Z,99.99
2018-10-07T07:12:36.688Z,99.99
2018-10-07T07:13:45.333Z,99.99
2018-10-07T07:14:53.973Z,99.99
2018-10-07T07:16:02.883Z,99.99
2018-10-07T07:17:11.516Z,99.99
2018-10-07T07:18:20.156Z,99.99
2018-10-07T07:19:28.798Z,99.99
2018-10-07T07:20:37.445Z,99.99
2018-10-07T07:21:46.084Z,99.99
2018-10-07T07:22:54.984Z,99.99
2018-10-07T07:24:03.624Z,99.99
2018-10-07T07:25:12.271Z,99.99
2018-10-07T07:26:21.171Z,99.99
2018-10-07T07:27:29.814Z,99.99
2018-10-07T07:28:38.455Z,99.99
2018-10-07T07:29:47.101Z,99.99
2018-10-07T07:30:56.036Z,99.99
2018-10-07T07:32:04.646Z,99.99
2018-10-07T07:33:13.282Z,99.99
2018-10-07T07:34:21.922Z,99.99
2018-10-07T07:35:30.568Z,99.99
2018-10-07T07:36:39.215Z,99.99
2018-10-07T07:37:47.850Z,99.99
2018-10-07T07:38:56.752Z,99.99
2018-10-07T07:40:05.661Z,99.99
2018-10-07T07:41:14.301Z,99.99
2018-10-07T07:42:23.241Z,99.99
2018-10-07T07:43:32.584Z,99.99
2018-10-07T07:44:41.231Z,99.99
2018-10-07T07:45:49.870Z,99.99
2018-10-07T07:46:58.510Z,99.99
2018-10-07T07:48:07.147Z,99.99
2018-10-07T07:49:15.815Z,99.99
2018-10-07T07:50:24.432Z,99.99
2018-10-07T07:51:33.076Z,99.99
2018-10-07T07:52:41.720Z,99.99
2018-10-07T07:53:50.626Z,99.99
2018-10-07T07:54:59.267Z,99.99
2018-10-07T07:56:08.173Z,99.99
2018-10-07T07:57:17.091Z,99.99
2018-10-07T07:58:25.727Z,99.99
2018-10-07T07:59:34.638Z,99.99
2018-10-07T08:00:43.282Z,99.99
2018-10-07T08:01:51.930Z,99.99
2018-10-07T08:03:00.570Z,99.99
2018-10-07T08:04:09.214Z,99.99
2018-10-07T08:05:17.855Z,99.99
2018-10-07T08:06:26.524Z,99.56
2018-10-07T08:07:35.164Z,98.13
2018-10-07T08:08:43.880Z,98.42
2018-10-07T08:09:52.443Z,98.51
2018-10-07T08:11:01.081Z,98.32
2018-10-07T08:12:09.731Z,97.94
2018-10-07T08:13:18.375Z,97.08
2018-10-07T08:14:27.025Z,97.56
2018-10-07T08:15:35.662Z,97.75
2018-10-07T08:16:44.316Z,97.37
2018-10-07T08:17:53.065Z,98.7
2018-10-07T08:19:01.601Z,99.46
2018-10-07T08:20:10.233Z,99.99
2018-10-07T08:21:18.883Z,98.61
2018-10-07T08:22:27.791Z,98.13
2018-10-07T08:23:36.460Z,97.51
2018-10-07T08:24:45.421Z,97.8
2018-10-07T08:25:54.328Z,97.89
2018-10-07T08:27:02.974Z,98.42
2018-10-07T08:28:11.619Z,98.32
2018-10-07T08:29:20.260Z,99.08
2018-10-07T08:30:28.893Z,97.94
2018-10-07T08:31:37.539Z,98.22
2018-10-07T08:32:46.177Z,97.85
2018-10-07T08:33:55.099Z,98.8
2018-10-07T08:35:03.767Z,98.22
2018-10-07T08:36:12.388Z,97.56
2018-10-07T08:37:21.026Z,97.56
2018-10-07T08:38:29.675Z,96.8
2018-10-07T08:39:38.310Z,97.56
2018-10-07T08:40:46.957Z,97.56
2018-10-07T08:41:55.596Z,97.37
2018-10-07T08:43:04.249Z,97.94
2018-10-07T08:44:12.887Z,99.85
2018-10-07T08:45:21.528Z,99.18
2018-10-07T08:46:30.430Z,96.8
2018-10-07T08:47:39.070Z,96.98
2018-10-07T08:48:47.720Z,96.32
2018-10-07T08:49:56.483Z,95.56
2018-10-07T08:51:05.004Z,96.13
2018-10-07T08:52:13.641Z,97.56
2018-10-07T08:53:22.290Z,98.61
2018-10-07T08:54:30.928Z,99.46
2018-10-07T08:55:39.576Z,96.89
2018-10-07T08:56:48.471Z,96.61
2018-10-07T08:57:57.120Z,94.32
2018-10-07T08:59:05.760Z,95.75
2018-10-07T09:00:14.677Z,95.84
2018-10-07T09:01:23.307Z,95.56
2018-10-07T09:02:32.220Z,96.32
2018-10-07T09:03:40.866Z,97.37
2018-10-07T09:04:49.511Z,97.17
2018-10-07T09:05:58.155Z,97.03
2018-10-07T09:07:06.791Z,95.46
2018-10-07T09:08:15.697Z,96.22
2018-10-07T09:09:24.333Z,97.8
2018-10-07T09:10:32.984Z,95.61
2018-10-07T09:11:41.622Z,96.27
2018-10-07T09:12:50.263Z,96.08
2018-10-07T09:13:59.170Z,95.7
2018-10-07T09:15:07.815Z,94.74
2018-10-07T09:16:16.453Z,94.74
2018-10-07T09:17:25.361Z,96.56
2018-10-07T09:18:34.266Z,96.56
2018-10-07T09:19:42.912Z,94.36
2018-10-07T09:20:51.609Z,94.56
2018-10-07T09:22:00.199Z,95.41
2018-10-07T09:23:09.101Z,94.36
2018-10-07T09:24:17.742Z,93.51
2018-10-07T09:25:26.389Z,92.65
2018-10-07T09:26:35.298Z,93.31
2018-10-07T09:27:43.945Z,93.02
2018-10-07T09:28:52.582Z,92.83
2018-10-07T09:30:01.228Z,92.83
2018-10-07T09:31:10.136Z,92.74
2018-10-07T09:32:18.835Z,92.55
2018-10-07T09:33:27.415Z,92.55
2018-10-07T09:34:36.063Z,93.12
2018-10-07T09:35:44.705Z,93.79
2018-10-07T09:36:53.431Z,93.51
2018-10-07T09:38:01.987Z,93.79
2018-10-07T09:39:10.703Z,93.12
2018-10-07T09:40:19.629Z,92.36
2018-10-07T09:41:28.272Z,91.78
2018-10-07T09:42:36.915Z,92.46
2018-10-07T09:43:45.555Z,93.31
2018-10-07T09:44:54.197Z,93.31
2018-10-07T09:46:02.840Z,93.51
2018-10-07T09:47:11.526Z,92.46
2018-10-07T09:48:20.526Z,92.17
2018-10-07T09:49:29.171Z,92.55
2018-10-07T09:50:37.811Z,92.65
2018-10-07T09:51:46.458Z,91.6
2018-10-07T09:52:55.094Z,92.65
2018-10-07T09:54:03.742Z,91.88
2018-10-07T09:55:12.646Z,92.69
2018-10-07T09:56:21.295Z,91.45
2018-10-07T09:57:29.935Z,92.41
2018-10-07T09:58:38.577Z,93.55
2018-10-07T09:59:47.222Z,92.02
2018-10-07T10:00:55.856Z,92.02
2018-10-07T10:02:04.510Z,91.55
2018-10-07T10:03:13.416Z,92.12
2018-10-07T10:04:22.228Z,92.5
2018-10-07T10:05:30.696Z,93.36
2018-10-07T10:06:39.343Z,93.17
2018-10-07T10:07:47.988Z,91.45
2018-10-07T10:08:56.893Z,90.5
2018-10-07T10:10:05.537Z,89.06
2018-10-07T10:11:14.206Z,89.73
2018-10-07T10:12:23.236Z,91.16
2018-10-07T10:13:31.877Z,89.92
2018-10-07T10:14:40.527Z,90.4
2018-10-07T10:15:49.192Z,90.4
2018-10-07T10:16:57.809Z,89.16
2018-10-07T10:18:06.451Z,88.68
2018-10-07T10:19:15.356Z,88.59
2018-10-07T10:20:24.004Z,89.78
2018-10-07T10:21:32.906Z,91.69
2018-10-07T10:22:41.553Z,91.02
2018-10-07T10:23:50.191Z,89.3
2018-10-07T10:24:58.837Z,89.87
2018-10-07T10:26:07.480Z,88.54
2018-10-07T10:27:16.122Z,87.68
2018-10-07T10:28:24.760Z,87.96
2018-10-07T10:29:33.406Z,87.29
2018-10-07T10:30:42.047Z,88.44
2018-10-07T10:31:50.695Z,88.25
2018-10-07T10:32:59.328Z,87.01
2018-10-07T10:34:07.973Z,86.34
2018-10-07T10:35:16.615Z,86.24
2018-10-07T10:36:25.259Z,86.72
2018-10-07T10:37:33.909Z,87.1
2018-10-07T10:38:42.550Z,86.63
2018-10-07T10:39:51.256Z,86.82
2018-10-07T10:40:59.838Z,86.82
2018-10-07T10:42:08.749Z,86.43
2018-10-07T10:43:17.386Z,85.67
2018-10-07T10:44:26.037Z,86.24
2018-10-07T10:45:34.675Z,86.82
2018-10-07T10:46:43.323Z,85.67
2018-10-07T10:47:51.970Z,85.86
2018-10-07T10:49:00.603Z,87.2
2018-10-07T10:50:09.244Z,89.11
2018-10-07T10:51:17.892Z,89.01
2018-10-07T10:52:26.533Z,87.01
2018-10-07T10:53:35.176Z,85.9
2018-10-07T10:54:43.817Z,85.67
2018-10-07T10:55:52.458Z,85.58
2018-10-07T10:57:01.105Z,84.76
2018-10-07T10:58:09.746Z,84.47
2018-10-07T10:59:18.390Z,85.05
2018-10-07T11:00:27.029Z,85.62
2018-10-07T11:01:35.947Z,85.81
2018-10-07T11:02:44.591Z,86
2018-10-07T11:03:53.236Z,85.71
2018-10-07T11:05:01.873Z,85.9
2018-10-07T11:06:10.520Z,86.47
2018-10-07T11:07:19.162Z,86.1
2018-10-07T11:08:28.073Z,86.19
2018-10-07T11:09:36.973Z,86.47
2018-10-07T11:10:45.618Z,85.81
2018-10-07T11:11:54.268Z,85.52
2018-10-07T11:13:02.913Z,85.62
2018-10-07T11:14:11.563Z,85.62
2018-10-07T11:15:20.215Z,84.89
2018-10-07T11:16:28.844Z,84.38
2018-10-07T11:17:37.482Z,85.33
2018-10-07T11:18:46.396Z,85.75
2018-10-07T11:19:55.029Z,82.98
2018-10-07T11:21:03.947Z,82.28
2018-10-07T11:22:12.587Z,82.89
2018-10-07T11:23:21.501Z,83.46
2018-10-07T11:24:30.136Z,83.27
2018-10-07T11:25:38.783Z,83.37
2018-10-07T11:26:47.429Z,83.94
2018-10-07T11:27:56.079Z,83.37
2018-10-07T11:29:04.719Z,82.98
2018-10-07T11:30:13.358Z,83.17
2018-10-07T11:31:21.998Z,83.37
2018-10-07T11:32:30.642Z,83.27
2018-10-07T11:33:39.294Z,83.56
2018-10-07T11:34:47.992Z,85.09
2018-10-07T11:35:56.583Z,83.08
2018-10-07T11:37:05.219Z,82.98
2018-10-07T11:38:13.878Z,83.27
2018-10-07T11:39:22.513Z,82.51
2018-10-07T11:40:31.161Z,82.22
2018-10-07T11:41:39.798Z,81.36
2018-10-07T11:42:48.447Z,81.07
2018-10-07T11:43:57.360Z,81.55
2018-10-07T11:45:06.005Z,81.55
2018-10-07T11:46:14.907Z,81.36
2018-10-07T11:47:23.553Z,81.55
2018-10-07T11:48:32.202Z,82.41
2018-10-07T11:49:40.844Z,82.51
2018-10-07T11:50:49.490Z,81.55
2018-10-07T11:51:58.123Z,82.41
2018-10-07T11:53:06.773Z,81.84
2018-10-07T11:54:15.418Z,82.03
2018-10-07T11:55:24.343Z,81.55
2018-10-07T11:56:32.971Z,82.12
2018-10-07T11:57:41.621Z,81.74
2018-10-07T11:58:50.259Z,80.88
2018-10-07T11:59:58.912Z,81.45
2018-10-07T12:01:07.549Z,79.93
2018-10-07T12:02:16.571Z,80.3
2018-10-07T12:03:25.100Z,80.02
2018-10-07T12:04:33.755Z,80.21
2018-10-07T12:05:42.396Z,78.87
2018-10-07T12:06:51.038Z,80.02
2018-10-07T12:07:59.685Z,79.83
2018-10-07T12:09:08.596Z,79.35
2018-10-07T12:10:17.352Z,79.83
2018-10-07T12:11:26.305Z,79.73
2018-10-07T12:12:35.214Z,80.11
2018-10-07T12:13:43.862Z,80.5
2018-10-07T12:14:52.498Z,80.3
2018-10-07T12:16:01.141Z,81.26
2018-10-07T12:17:09.783Z,81.55
2018-10-07T12:18:18.430Z,82.31
2018-10-07T12:19:27.071Z,80.79
2018-10-07T12:20:35.719Z,80.88
2018-10-07T12:21:44.620Z,80.98
2018-10-07T12:22:53.271Z,79.64
2018-10-07T12:24:01.914Z,79.93
2018-10-07T12:25:10.817Z,79.93
2018-10-07T12:26:19.458Z,79.73
2018-10-07T12:27:28.098Z,80.02
2018-10-07T12:28:36.747Z,79.96
2018-10-07T12:29:45.392Z,81.26
2018-10-07T12:30:54.595Z,79.58
2018-10-07T12:32:03.221Z,80.54
2018-10-07T12:33:11.872Z,79.93
2018-10-07T12:34:20.782Z,80.82
2018-10-07T12:35:29.426Z,80.82
2018-10-07T12:36:38.068Z,80.3
2018-10-07T12:37:46.713Z,81.49
2018-10-07T12:38:55.353Z,79.68
2018-10-07T12:40:04.001Z,78.81
2018-10-07T12:41:12.644Z,78.53
2018-10-07T12:42:21.817Z,79.87
2018-10-07T12:43:30.462Z,79.96
2018-10-07T12:44:39.113Z,79.73
2018-10-07T12:45:47.753Z,79.39
2018-10-07T12:46:56.662Z,80.25
2018-10-07T12:48:05.307Z,80.44
2018-10-07T12:49:13.952Z,80.35
2018-10-07T12:50:22.866Z,78.63
2018-10-07T12:51:31.506Z,79
2018-10-07T12:52:40.150Z,79.68
2018-10-07T12:53:48.796Z,79.29
2018-10-07T12:54:57.447Z,78.63
2018-10-07T12:56:06.350Z,79.49
2018-10-07T12:57:14.998Z,79.39
2018-10-07T12:58:23.639Z,79.87
2018-10-07T12:59:32.291Z,79.68
2018-10-07T13:00:40.932Z,80.92
2018-10-07T13:01:49.579Z,79.77
2018-10-07T13:02:58.744Z,79.2
2018-10-07T13:04:07.653Z,79.39
2018-10-07T13:05:16.571Z,78.81
2018-10-07T13:06:25.212Z,78.05
2018-10-07T13:07:33.861Z,79.68
2018-10-07T13:08:42.496Z,79.96
2018-10-07T13:09:51.154Z,80.44
2018-10-07T13:11:00.055Z,81.78
2018-10-07T13:12:08.702Z,79.77
2018-10-07T13:13:17.601Z,79.29
2018-10-07T13:14:26.256Z,79.49
2018-10-07T13:15:34.899Z,79.58
2018-10-07T13:16:43.543Z,80.73
2018-10-07T13:17:52.178Z,80.25
2018-10-07T13:19:00.827Z,81.11
2018-10-07T13:20:09.749Z,81.59
2018-10-07T13:21:18.397Z,79
2018-10-07T13:22:27.100Z,78.72
2018-10-07T13:23:35.677Z,78.43
2018-10-07T13:24:44.328Z,78.43
2018-10-07T13:25:52.968Z,78.14
2018-10-07T13:27:01.625Z,78.43
2018-10-07T13:28:10.260Z,78.24
2018-10-07T13:29:18.908Z,78.14
2018-10-07T13:30:27.552Z,78.24
2018-10-07T13:31:36.472Z,78.14
2018-10-07T13:32:45.110Z,80.06
2018-10-07T13:33:53.759Z,80.16
2018-10-07T13:35:02.664Z,78.91
2018-10-07T13:36:11.320Z,79.39
2018-10-07T13:37:20.492Z,79.87
2018-10-07T13:38:29.131Z,80.58
2018-10-07T13:39:37.775Z,80.87
2018-10-07T13:40:46.417Z,81.11
2018-10-07T13:41:55.073Z,79.81
2018-10-07T13:43:03.711Z,79.62
2018-10-07T13:44:12.633Z,80.29
2018-10-07T13:45:21.537Z,80.48
2018-10-07T13:46:30.188Z,81.25
2018-10-07T13:47:38.831Z,82.87
2018-10-07T13:48:47.508Z,83.54
2018-10-07T13:49:56.158Z,83.36
2018-10-07T13:51:04.777Z,82.11
2018-10-07T13:52:13.420Z,81.78
2018-10-07T13:53:22.092Z,81.4
2018-10-07T13:54:31.440Z,80.44
2018-10-07T13:55:40.089Z,81.68
2018-10-07T13:56:48.735Z,80.35
2018-10-07T13:57:57.395Z,80.79
2018-10-07T13:59:06.307Z,81.21
2018-10-07T14:00:14.945Z,82.22
2018-10-07T14:01:23.856Z,83.17
2018-10-07T14:02:32.498Z,84.89
2018-10-07T14:03:41.154Z,85.57
2018-10-07T14:04:49.789Z,85.18
2018-10-07T14:05:58.428Z,85.18
2018-10-07T14:07:07.078Z,83.46
2018-10-07T14:08:15.708Z,83.08
2018-10-07T14:09:24.359Z,82.6
2018-10-07T14:10:33.003Z,82.98
2018-10-07T14:11:41.649Z,81.93
2018-10-07T14:12:50.285Z,81.55
2018-10-07T14:13:58.936Z,82.41
2018-10-07T14:15:07.581Z,81.65
2018-10-07T14:16:16.489Z,81.74
2018-10-07T14:17:25.403Z,81.55
2018-10-07T14:18:34.039Z,82.22
2018-10-07T14:19:42.692Z,82.22
2018-10-07T14:20:51.328Z,82.12
2018-10-07T14:21:59.982Z,82.31
2018-10-07T14:23:08.622Z,80.3
2018-10-07T14:24:17.540Z,80.59
2018-10-07T14:25:26.180Z,80.3
2018-10-07T14:26:34.832Z,81.16
2018-10-07T14:27:43.468Z,81.4
2018-10-07T14:28:52.120Z,82.22
2018-10-07T14:30:00.762Z,81.74
2018-10-07T14:31:09.687Z,81.55
2018-10-07T14:32:18.329Z,81.55
2018-10-07T14:33:26.970Z,81.49
2018-10-07T14:34:35.610Z,81.84
2018-10-07T14:35:44.522Z,82.98
2018-10-07T14:36:53.184Z,84.03
2018-10-07T14:38:02.354Z,85.71
2018-10-07T14:39:11.050Z,83.03
2018-10-07T14:40:19.901Z,81.55
2018-10-07T14:41:28.554Z,82.83
2018-10-07T14:42:37.194Z,84.08
2018-10-07T14:43:45.842Z,84.94
2018-10-07T14:44:54.478Z,82.93
2018-10-07T14:46:03.128Z,82.6